Time;durP1;ratioP1;P1;durP2;ratioP2;P2;SDS_P1;SDS_P2;PMS_P1;PMS_P2;Temp;Humidity;BMP_temperature;BMP_pressure;BME280_temperature;BME280_humidity;BME280_pressure;Samples;Min_cycle;Max_cycle;Signal;HPM_P1;HPM_P2
2022/08/10 00:02:27;;;;;;;7.90;6.10;;;27.10;99.90;;;;;;5038213;28;20245;-95
2022/08/10 00:05:01;;;;;;;8.87;5.87;;;27.30;99.90;;;;;;5039048;28;20228;-94
2022/08/10 00:07:32;;;;;;;8.00;5.67;;;27.60;99.90;;;;;;5034217;28;20260;-94
2022/08/10 00:10:04;;;;;;;11.57;6.37;;;27.70;99.90;;;;;;5023232;28;20212;-94
2022/08/10 00:12:35;;;;;;;7.97;5.60;;;27.30;99.90;;;;;;5020117;28;20217;-95
2022/08/10 00:15:25;;;;;;;6.63;5.70;;;27.40;99.90;;;;;;5022389;28;20213;-96
2022/08/10 00:18:17;;;;;;;9.30;5.70;;;27.50;99.90;;;;;;5022829;28;20210;-95
2022/08/10 00:21:07;;;;;;;13.00;5.70;;;27.70;99.90;;;;;;5038435;28;20194;-95
2022/08/10 00:23:41;;;;;;;8.00;5.40;;;27.60;99.90;;;;;;5039176;28;20207;-94
2022/08/10 00:26:14;;;;;;;12.40;5.73;;;27.70;99.90;;;;;;5038945;28;20220;-94
2022/08/10 00:28:52;;;;;;;7.77;5.40;;;27.80;99.90;;;;;;5038731;28;20197;-94
2022/08/10 00:31:26;;;;;;;9.73;5.80;;;27.60;99.90;;;;;;5037818;28;20220;-95
2022/08/10 00:33:57;;;;;;;9.03;5.70;;;27.10;99.90;;;;;;5038398;28;20205;-94
2022/08/10 00:36:30;;;;;;;8.60;6.43;;;27.20;99.90;;;;;;5038778;28;20217;-94
2022/08/10 00:39:02;;;;;;;6.63;5.73;;;27.20;99.90;;;;;;5038497;28;20197;-93
2022/08/10 00:41:33;;;;;;;9.27;5.67;;;27.20;99.90;;;;;;5037983;28;20356;-94
2022/08/10 00:44:05;;;;;;;8.37;5.67;;;27.20;99.90;;;;;;5038848;28;20194;-94
2022/08/10 00:46:40;;;;;;;9.17;6.10;;;27.20;99.90;;;;;;5038815;28;20205;-94
2022/08/10 00:49:11;;;;;;;12.30;5.90;;;27.10;99.90;;;;;;5038764;28;20225;-94
2022/08/10 00:51:45;;;;;;;8.80;6.80;;;27.00;99.90;;;;;;5037776;28;20228;-94
2022/08/10 00:54:20;;;;;;;10.40;5.80;;;26.70;99.90;;;;;;5017733;28;20229;-93
2022/08/10 00:56:54;;;;;;;9.50;6.10;;;26.70;99.90;;;;;;5014657;28;20213;-94
2022/08/10 00:59:46;;;;;;;10.10;5.90;;;26.70;99.90;;;;;;5000066;28;20278;-94
2022/08/10 01:02:29;;;;;;;6.90;5.60;;;26.80;99.90;;;;;;4999783;28;20241;-94
2022/08/10 01:05:04;;;;;;;6.80;5.57;;;27.10;99.90;;;;;;4999108;28;20230;-94
2022/08/10 01:07:53;;;;;;;10.23;6.00;;;27.40;99.90;;;;;;4999208;28;20241;-93
2022/08/10 01:10:38;;;;;;;11.27;6.03;;;27.60;99.90;;;;;;4999160;28;20234;-94
2022/08/10 01:13:14;;;;;;;7.10;5.70;;;27.60;99.90;;;;;;4998787;28;20257;-94
2022/08/10 01:16:00;;;;;;;7.80;5.50;;;27.80;99.90;;;;;;4999695;28;20222;-94
2022/08/10 01:18:41;;;;;;;9.77;5.90;;;28.10;99.90;;;;;;4999893;28;20226;-93
2022/08/10 01:21:43;;;;;;;10.50;5.30;;;28.40;99.90;;;;;;4998018;28;20249;-95
2022/08/10 01:25:04;;;;;;;9.10;6.70;;;28.30;99.90;;;;;;5001281;28;20217;-94
2022/08/10 01:27:41;;;;;;;10.67;6.37;;;27.80;99.90;;;;;;4999342;28;20229;-94
2022/08/10 01:30:17;;;;;;;7.40;5.87;;;27.80;99.90;;;;;;5000314;28;20288;-94
2022/08/10 01:32:54;;;;;;;8.80;5.90;;;28.20;99.90;;;;;;5000220;28;20276;-93
2022/08/10 01:35:32;;;;;;;6.40;5.13;;;28.10;99.90;;;;;;5003421;28;20270;-93
2022/08/10 01:38:10;;;;;;;7.90;5.40;;;28.30;99.90;;;;;;5004683;28;20210;-94
2022/08/10 01:40:47;;;;;;;8.43;5.43;;;28.60;99.90;;;;;;5016851;28;20202;-94
2022/08/10 01:43:20;;;;;;;9.70;5.20;;;29.10;99.90;;;;;;5015419;28;20218;-94
2022/08/10 01:45:58;;;;;;;6.70;5.60;;;29.40;99.90;;;;;;5011816;28;20274;-95
2022/08/10 01:48:33;;;;;;;8.13;5.67;;;28.60;99.90;;;;;;5008505;28;20215;-94
2022/08/10 01:51:24;;;;;;;7.50;5.60;;;28.30;99.90;;;;;;5002175;28;20205;-95
2022/08/10 01:54:02;;;;;;;6.67;5.43;;;28.00;99.90;;;;;;5018756;28;20214;-96
2022/08/10 01:56:40;;;;;;;7.33;6.20;;;28.00;99.90;;;;;;5020103;28;20269;-95
2022/08/10 01:59:14;;;;;;;9.57;5.70;;;27.80;99.90;;;;;;5033277;28;20205;-95
2022/08/10 02:01:51;;;;;;;8.27;5.30;;;27.60;99.90;;;;;;5036270;28;20231;-94
2022/08/10 02:04:26;;;;;;;9.53;5.43;;;27.10;99.90;;;;;;5035562;28;20241;-95
2022/08/10 02:07:00;;;;;;;9.07;5.50;;;26.80;99.90;;;;;;5020351;28;20210;-94
2022/08/10 02:09:35;;;;;;;6.97;5.30;;;26.40;99.90;;;;;;5019067;28;20202;-95
2022/08/10 02:12:10;;;;;;;8.10;5.80;;;26.10;99.90;;;;;;5018869;28;20673;-95
2022/08/10 02:14:46;;;;;;;9.30;5.47;;;25.70;99.90;;;;;;5017786;28;20216;-95
2022/08/10 02:17:24;;;;;;;6.03;5.40;;;25.40;99.90;;;;;;5017450;28;20201;-95
2022/08/10 02:20:20;;;;;;;8.33;5.30;;;25.20;99.90;;;;;;5017272;28;20301;-96
2022/08/10 02:22:59;;;;;;;8.63;5.47;;;25.00;99.90;;;;;;5016967;28;20232;-96
2022/08/10 02:25:32;;;;;;;8.33;5.17;;;25.00;99.90;;;;;;5017120;28;20255;-96
2022/08/10 02:28:16;;;;;;;9.03;5.43;;;24.80;99.90;;;;;;5017046;28;20209;-95
2022/08/10 02:31:05;;;;;;;8.90;6.17;;;24.70;99.90;;;;;;5016090;28;20233;-95
2022/08/10 02:33:45;;;;;;;8.97;5.43;;;24.60;99.90;;;;;;5017780;28;20620;-96
2022/08/10 02:36:29;;;;;;;6.90;5.30;;;24.50;99.90;;;;;;5016902;28;20248;-95
2022/08/10 02:39:04;;;;;;;6.30;5.07;;;24.40;99.90;;;;;;5017244;28;20662;-95
2022/08/10 02:41:41;;;;;;;7.57;5.20;;;24.30;99.90;;;;;;5016278;28;20217;-96
2022/08/10 02:44:41;;;;;;;8.60;5.47;;;24.30;99.90;;;;;;5016154;28;20324;-95
2022/08/10 02:47:37;;;;;;;6.60;5.00;;;24.30;99.90;;;;;;5016611;28;20300;-95
2022/08/10 02:50:28;;;;;;;9.37;5.40;;;24.20;99.90;;;;;;5016449;28;20213;-96
2022/08/10 02:53:06;;;;;;;7.07;5.20;;;24.20;99.90;;;;;;5006716;28;20264;-95
2022/08/10 02:56:01;;;;;;;6.43;4.90;;;24.10;99.90;;;;;;4997110;28;20238;-94
2022/08/10 02:58:38;;;;;;;6.53;5.17;;;24.10;99.90;;;;;;4997762;28;20217;-94
2022/08/10 03:01:14;;;;;;;9.93;5.23;;;24.10;99.90;;;;;;4994912;28;20233;-95
2022/08/10 03:03:49;;;;;;;7.37;4.33;;;24.00;99.90;;;;;;4998640;28;20245;-95
2022/08/10 03:06:26;;;;;;;10.53;4.83;;;24.10;99.90;;;;;;5000629;28;20237;-94
2022/08/10 03:08:59;;;;;;;5.93;5.03;;;24.00;99.90;;;;;;5003864;28;20582;-94
2022/08/10 03:11:33;;;;;;;11.00;5.77;;;23.90;99.90;;;;;;5002493;28;20244;-94
2022/08/10 03:14:26;;;;;;;6.00;5.30;;;23.80;99.90;;;;;;5000654;28;20349;-94
2022/08/10 03:17:00;;;;;;;6.77;4.80;;;23.70;99.90;;;;;;5023114;28;20225;-94
2022/08/10 03:19:32;;;;;;;8.87;5.20;;;23.60;99.90;;;;;;5022144;28;20221;-94
2022/08/10 03:22:27;;;;;;;5.73;4.83;;;23.60;99.90;;;;;;5018974;28;20297;-94
2022/08/10 03:25:00;;;;;;;5.77;4.57;;;23.50;99.90;;;;;;5021918;28;20577;-95
2022/08/10 03:27:32;;;;;;;6.30;5.00;;;23.40;99.90;;;;;;5029223;28;20268;-95
2022/08/10 03:30:05;;;;;;;9.70;5.33;;;23.30;99.90;;;;;;5021519;28;20650;-95
2022/08/10 03:32:59;;;;;;;7.30;4.27;;;23.30;99.90;;;;;;5020703;28;20213;-95
2022/08/10 03:35:31;;;;;;;8.80;4.90;;;23.20;99.90;;;;;;5020112;28;20300;-96
2022/08/10 03:38:05;;;;;;;9.20;4.90;;;23.00;99.90;;;;;;5020249;28;20653;-95
2022/08/10 03:40:39;;;;;;;7.17;4.90;;;23.00;99.90;;;;;;5018598;28;20275;-95
2022/08/10 03:43:18;;;;;;;6.67;5.07;;;22.90;99.90;;;;;;5019739;28;20235;-96
2022/08/10 03:45:54;;;;;;;5.03;4.53;;;22.80;99.90;;;;;;5019530;28;20236;-95
2022/08/10 03:48:27;;;;;;;8.73;5.03;;;22.70;99.90;;;;;;5019484;28;20296;-95
2022/08/10 03:51:18;;;;;;;6.27;4.97;;;22.60;99.90;;;;;;5018484;28;20218;-95
2022/08/10 03:53:52;;;;;;;7.30;5.50;;;22.50;99.90;;;;;;5001816;28;20220;-95
2022/08/10 03:56:41;;;;;;;5.57;4.93;;;22.40;99.90;;;;;;5001829;28;20201;-95
2022/08/10 03:59:15;;;;;;;5.63;4.70;;;22.40;99.90;;;;;;5020558;28;20213;-95
2022/08/10 04:01:48;;;;;;;7.70;5.40;;;22.30;99.90;;;;;;5018176;28;20728;-95
2022/08/10 04:04:41;;;;;;;7.30;5.03;;;22.20;99.90;;;;;;5019074;28;20305;-96
2022/08/10 04:07:13;;;;;;;6.97;5.40;;;22.20;99.90;;;;;;5019449;28;20214;-96
2022/08/10 04:09:47;;;;;;;7.60;5.00;;;22.20;99.90;;;;;;5018849;28;20210;-95
2022/08/10 04:12:25;;;;;;;7.30;5.37;;;22.10;99.90;;;;;;5018755;28;20320;-95
2022/08/10 04:14:56;;;;;;;5.53;4.90;;;22.10;99.90;;;;;;5018166;28;20217;-95
2022/08/10 04:17:30;;;;;;;6.63;5.40;;;22.10;99.90;;;;;;5019102;28;20198;-95
2022/08/10 04:20:26;;;;;;;6.33;5.40;;;22.00;99.90;;;;;;5018417;28;20306;-95
2022/08/10 04:23:07;;;;;;;6.70;5.67;;;22.00;99.90;;;;;;5018842;28;20221;-95
2022/08/10 04:25:42;;;;;;;9.73;5.23;;;21.90;99.90;;;;;;5021233;28;20237;-95
2022/08/10 04:28:14;;;;;;;5.73;4.77;;;21.90;99.90;;;;;;5023043;28;20619;-96
2022/08/10 04:30:48;;;;;;;8.70;5.20;;;21.80;99.90;;;;;;5020967;28;20324;-95
2022/08/10 04:33:22;;;;;;;7.57;5.43;;;21.80;99.90;;;;;;5019047;28;20237;-95
2022/08/10 04:36:00;;;;;;;7.03;5.13;;;21.70;99.90;;;;;;5023461;28;20295;-95
2022/08/10 04:38:39;;;;;;;10.17;5.20;;;21.70;99.90;;;;;;5018493;28;20224;-95
2022/08/10 04:41:13;;;;;;;7.57;5.87;;;21.60;99.90;;;;;;5017282;28;20250;-95
2022/08/10 04:43:45;;;;;;;5.83;5.07;;;21.60;99.90;;;;;;5018786;28;20279;-94
2022/08/10 04:46:17;;;;;;;7.47;5.40;;;21.60;99.90;;;;;;5020099;28;20410;-95
2022/08/10 04:49:08;;;;;;;5.97;5.27;;;21.50;99.90;;;;;;5022285;28;20294;-95
2022/08/10 04:52:00;;;;;;;9.43;5.23;;;21.40;99.90;;;;;;5020317;28;20297;-96
2022/08/10 04:54:49;;;;;;;6.00;5.27;;;21.40;99.90;;;;;;5021209;28;20239;-95
2022/08/10 04:57:22;;;;;;;6.23;5.63;;;21.40;99.90;;;;;;5018489;28;20225;-95
2022/08/10 04:59:55;;;;;;;7.10;5.37;;;21.30;99.90;;;;;;5020880;28;20213;-95
2022/08/10 05:02:27;;;;;;;7.33;5.10;;;21.30;99.90;;;;;;5017374;28;20217;-95
2022/08/10 05:05:04;;;;;;;6.97;5.43;;;21.30;99.90;;;;;;5017848;28;20233;-95
2022/08/10 05:07:35;;;;;;;5.60;5.03;;;21.30;99.90;;;;;;5018135;28;20205;-95
2022/08/10 05:10:26;;;;;;;9.83;5.27;;;21.20;99.90;;;;;;5017581;28;20210;-95
2022/08/10 05:12:59;;;;;;;7.70;5.90;;;21.20;99.90;;;;;;5021837;28;20276;-95
2022/08/10 05:15:30;;;;;;;8.67;5.57;;;21.20;99.90;;;;;;5018156;28;20213;-96
2022/08/10 05:18:02;;;;;;;8.27;5.47;;;21.20;99.90;;;;;;5016777;28;20682;-95
2022/08/10 05:20:44;;;;;;;6.63;5.37;;;21.10;99.90;;;;;;5017294;28;20284;-95
2022/08/10 05:23:19;;;;;;;8.57;5.80;;;21.10;99.90;;;;;;5016842;28;20233;-95
2022/08/10 05:25:50;;;;;;;7.97;5.30;;;21.00;99.90;;;;;;5017772;28;20292;-95
2022/08/10 05:28:24;;;;;;;8.27;6.27;;;21.00;99.90;;;;;;5021575;28;20214;-95
2022/08/10 05:31:00;;;;;;;9.77;6.10;;;21.00;99.90;;;;;;5016913;28;20221;-95
2022/08/10 05:33:34;;;;;;;8.70;6.03;;;21.00;99.90;;;;;;5003518;28;20206;-95
2022/08/10 05:36:09;;;;;;;9.27;6.37;;;20.90;99.90;;;;;;5020326;28;20232;-95
2022/08/10 05:38:43;;;;;;;6.00;5.10;;;20.80;99.90;;;;;;5020218;28;20235;-95
2022/08/10 05:41:15;;;;;;;6.60;5.20;;;20.80;99.90;;;;;;5018774;28;20206;-95
2022/08/10 05:47:03;;;;;;;6.77;5.07;;;20.70;99.90;;;;;;5018436;28;20251;-94
2022/08/10 05:49:43;;;;;;;8.00;5.33;;;20.70;99.90;;;;;;5017658;28;20217;-95
2022/08/10 05:52:15;;;;;;;7.60;5.23;;;20.60;99.90;;;;;;5016988;28;20218;-95
2022/08/10 05:54:48;;;;;;;6.90;5.43;;;20.60;99.90;;;;;;5019163;28;20218;-95
2022/08/10 05:57:22;;;;;;;5.40;4.90;;;20.60;99.90;;;;;;5021116;28;20240;-95
2022/08/10 06:00:03;;;;;;;5.80;5.23;;;20.50;99.90;;;;;;5019584;28;20233;-95
2022/08/10 06:03:02;;;;;;;6.77;5.40;;;20.50;99.90;;;;;;5020482;28;20201;-94
2022/08/10 06:05:35;;;;;;;6.30;5.53;;;20.40;99.90;;;;;;5022456;28;20240;-94
2022/08/10 06:08:14;;;;;;;7.07;5.17;;;20.40;99.90;;;;;;5020590;28;20205;-94
2022/08/10 06:10:47;;;;;;;7.03;5.60;;;20.40;99.90;;;;;;5021058;28;20218;-94
2022/08/10 06:16:51;;;;;;;6.47;5.20;;;20.30;99.90;;;;;;5036929;28;20240;-95
2022/08/10 06:19:23;;;;;;;6.00;5.40;;;20.30;99.90;;;;;;5041853;28;20212;-96
2022/08/10 06:22:00;;;;;;;7.83;5.80;;;20.20;99.90;;;;;;5041601;28;20235;-95
2022/08/10 06:24:36;;;;;;;7.33;5.27;;;20.20;99.90;;;;;;5025455;28;20247;-94
2022/08/10 06:27:29;;;;;;;6.70;5.93;;;20.10;99.90;;;;;;5021454;28;20263;-95
2022/08/10 06:30:04;;;;;;;7.63;5.50;;;20.10;99.90;;;;;;5022557;28;20276;-95
2022/08/10 06:32:55;;;;;;;6.50;5.20;;;20.00;99.90;;;;;;5035041;28;20228;-94
2022/08/10 06:35:29;;;;;;;6.73;5.33;;;19.90;99.90;;;;;;5036511;28;20221;-94
2022/08/10 06:38:05;;;;;;;9.47;5.73;;;19.90;99.90;;;;;;5038604;28;20224;-95
2022/08/10 06:40:43;;;;;;;9.00;5.40;;;19.80;99.90;;;;;;5038534;28;20204;-95
2022/08/10 06:43:18;;;;;;;6.37;5.43;;;19.80;99.90;;;;;;5023808;28;20267;-94
2022/08/10 06:45:53;;;;;;;5.80;5.13;;;19.80;99.90;;;;;;5023065;28;20241;-95
2022/08/10 06:48:57;;;;;;;9.37;5.63;;;19.80;99.90;;;;;;5023726;28;20224;-96
2022/08/10 06:51:33;;;;;;;7.80;5.67;;;19.70;99.90;;;;;;5004268;28;20247;-95
2022/08/10 06:54:07;;;;;;;7.10;5.70;;;19.70;99.90;;;;;;5024058;28;20243;-95
2022/08/10 06:56:45;;;;;;;7.47;5.70;;;19.60;99.90;;;;;;5022181;28;20216;-95
2022/08/10 06:59:47;;;;;;;8.47;6.00;;;19.60;99.90;;;;;;5022596;28;20225;-95
2022/08/10 07:02:26;;;;;;;6.13;5.30;;;19.60;99.90;;;;;;5021666;28;20687;-95
2022/08/10 07:05:04;;;;;;;6.43;5.83;;;19.50;99.90;;;;;;5022434;28;20229;-96
2022/08/10 07:07:40;;;;;;;9.93;5.80;;;19.50;99.90;;;;;;5022150;28;20248;-95
2022/08/10 07:10:12;;;;;;;7.33;6.00;;;19.40;99.90;;;;;;5022401;28;20217;-94
2022/08/10 07:12:45;;;;;;;7.23;5.70;;;19.40;99.90;;;;;;5027562;28;20256;-94
2022/08/10 07:15:18;;;;;;;8.00;5.60;;;19.40;99.90;;;;;;5042447;28;20236;-94
2022/08/10 07:17:52;;;;;;;6.27;5.63;;;19.40;99.90;;;;;;5055836;28;20224;-95
2022/08/10 07:20:31;;;;;;;6.57;5.87;;;19.50;99.90;;;;;;5045043;28;20593;-95
2022/08/10 07:23:05;;;;;;;6.53;5.57;;;19.50;99.90;;;;;;5043602;28;20232;-95
2022/08/10 07:25:59;;;;;;;9.37;6.10;;;19.40;99.90;;;;;;5044189;28;20296;-94
2022/08/10 07:28:33;;;;;;;7.17;5.33;;;19.40;99.90;;;;;;5043671;28;20225;-95
2022/08/10 07:31:21;;;;;;;7.97;5.77;;;19.40;99.90;;;;;;5041846;28;20211;-94
2022/08/10 07:34:15;;;;;;;6.97;5.80;;;19.40;99.90;;;;;;5042656;28;20282;-94
2022/08/10 07:37:06;;;;;;;9.33;5.53;;;19.30;99.90;;;;;;5058535;28;20215;-94
2022/08/10 07:39:41;;;;;;;9.80;6.43;;;19.30;99.90;;;;;;5058245;28;20211;-95
2022/08/10 07:45:20;;;;;;;7.50;6.27;;;19.30;99.90;;;;;;5059288;28;20282;-94
2022/08/10 07:47:59;;;;;;;6.67;6.00;;;19.30;99.90;;;;;;5056700;28;20312;-94
2022/08/10 07:50:38;;;;;;;7.70;6.20;;;19.20;99.90;;;;;;5041154;28;20217;-94
2022/08/10 07:53:22;;;;;;;7.30;5.87;;;19.20;99.90;;;;;;5040370;28;20271;-94
2022/08/10 07:55:56;;;;;;;6.67;5.77;;;19.10;99.90;;;;;;5040664;28;20224;-95
2022/08/10 07:58:45;;;;;;;10.20;6.03;;;19.10;99.90;;;;;;5039805;28;20217;-94
2022/08/10 08:01:27;;;;;;;9.87;5.53;;;19.00;99.90;;;;;;5039678;28;20212;-95
2022/08/10 08:04:01;;;;;;;7.67;5.77;;;19.00;99.90;;;;;;5040092;28;20216;-94
2022/08/10 08:06:43;;;;;;;6.97;5.73;;;19.10;99.90;;;;;;5039406;28;20240;-94
2022/08/10 08:09:16;;;;;;;8.17;5.70;;;19.10;99.90;;;;;;5038655;28;20209;-94
2022/08/10 08:11:49;;;;;;;8.07;6.07;;;19.00;99.90;;;;;;5039377;28;20210;-94
2022/08/10 08:14:23;;;;;;;8.17;5.60;;;18.90;99.90;;;;;;5039953;28;20209;-94
2022/08/10 08:16:56;;;;;;;7.23;6.13;;;18.90;99.90;;;;;;5041481;28;20209;-94
2022/08/10 08:19:29;;;;;;;9.23;6.27;;;18.90;99.90;;;;;;5040669;28;20610;-93
2022/08/10 08:22:08;;;;;;;6.83;5.53;;;18.80;99.90;;;;;;5041913;28;20231;-93
2022/08/10 08:25:02;;;;;;;8.60;6.07;;;18.70;99.90;;;;;;5043218;28;20205;-94
2022/08/10 08:27:40;;;;;;;6.93;6.23;;;18.70;99.90;;;;;;5042421;28;20260;-94
2022/08/10 08:30:17;;;;;;;8.10;6.20;;;18.70;99.90;;;;;;5040946;28;20228;-93
2022/08/10 08:33:03;;;;;;;11.87;6.87;;;18.70;99.90;;;;;;5050371;28;20239;-95
2022/08/10 08:35:35;;;;;;;8.73;6.23;;;18.60;99.90;;;;;;5058029;28;20208;-93
2022/08/10 08:38:08;;;;;;;7.77;6.87;;;18.60;99.90;;;;;;5053657;28;20208;-92
2022/08/10 08:41:12;;;;;;;9.77;6.97;;;18.60;99.90;;;;;;5057260;28;20220;-94
2022/08/10 08:43:55;;;;;;;7.93;6.70;;;18.60;99.90;;;;;;5057933;28;20213;-94
2022/08/10 08:46:45;;;;;;;7.23;6.37;;;18.60;99.90;;;;;;5057550;28;20224;-93
2022/08/10 08:49:51;;;;;;;10.50;6.53;;;18.60;99.90;;;;;;5056913;28;20224;-96
2022/08/10 08:52:52;;;;;;;8.20;6.30;;;18.60;99.90;;;;;;5043593;28;20209;-94
2022/08/10 08:55:45;;;;;;;7.53;6.03;;;18.50;99.90;;;;;;5037234;28;20194;-94
2022/08/10 08:58:56;;;;;;;9.17;6.47;;;18.40;99.90;;;;;;5028661;28;20256;-95
2022/08/10 09:01:47;;;;;;;6.60;6.00;;;18.30;99.90;;;;;;5020303;28;20236;-95
2022/08/10 09:04:38;;;;;;;8.23;6.23;;;18.30;99.90;;;;;;5019834;28;20271;-95
2022/08/10 09:07:42;;;;;;;9.87;6.23;;;18.40;99.90;;;;;;5018620;28;20233;-96
2022/08/10 09:10:44;;;;;;;6.70;6.00;;;18.40;99.90;;;;;;5017097;28;20213;-94
2022/08/10 09:13:25;;;;;;;8.00;5.87;;;18.30;99.90;;;;;;5020545;28;20213;-94
2022/08/10 09:16:16;;;;;;;8.33;5.73;;;18.30;99.90;;;;;;5021265;28;20264;-94
2022/08/10 09:18:53;;;;;;;7.23;6.47;;;18.40;99.90;;;;;;5020479;28;20624;-94
2022/08/10 09:21:35;;;;;;;7.63;6.00;;;18.30;99.90;;;;;;5019450;28;20213;-94
2022/08/10 09:24:42;;;;;;;6.57;5.93;;;18.30;99.90;;;;;;5019933;28;20229;-94
2022/08/10 09:27:21;;;;;;;7.77;5.87;;;18.30;99.90;;;;;;5020272;28;20601;-95
2022/08/10 09:29:57;;;;;;;9.83;5.67;;;18.30;99.90;;;;;;5020651;28;20256;-94
2022/08/10 09:32:45;;;;;;;7.90;5.87;;;18.20;99.90;;;;;;5020098;28;20213;-95
2022/08/10 09:35:52;;;;;;;5.93;5.20;;;18.30;99.90;;;;;;5021073;28;20213;-94
2022/08/10 09:38:53;;;;;;;7.40;6.07;;;18.30;99.90;;;;;;5020503;28;20308;-92
2022/08/10 09:41:34;;;;;;;6.73;6.13;;;18.20;99.90;;;;;;5019325;28;20244;-93
2022/08/10 09:44:15;;;;;;;7.63;5.83;;;18.30;99.90;;;;;;5020031;28;20576;-94
2022/08/10 09:47:07;;;;;;;8.30;6.00;;;18.30;99.90;;;;;;5021369;28;20295;-94
2022/08/10 09:49:59;;;;;;;6.50;5.87;;;18.40;99.90;;;;;;5019510;28;20293;-94
2022/08/10 09:52:45;;;;;;;6.93;5.70;;;18.40;99.90;;;;;;5012386;28;20670;-94
2022/08/10 09:55:36;;;;;;;5.93;5.33;;;18.40;99.90;;;;;;4999732;28;20213;-93
2022/08/10 09:58:39;;;;;;;6.97;5.10;;;18.50;99.90;;;;;;4999238;28;20202;-94
2022/08/10 10:01:21;;;;;;;6.57;5.87;;;18.40;99.90;;;;;;4998131;28;20245;-94
2022/08/10 10:04:22;;;;;;;7.60;5.70;;;18.40;99.90;;;;;;4999003;28;20214;-94
2022/08/10 10:07:05;;;;;;;8.63;5.43;;;18.40;99.90;;;;;;4999081;28;20229;-94
2022/08/10 10:09:51;;;;;;;7.60;5.53;;;18.30;99.90;;;;;;4998964;28;20229;-94
2022/08/10 10:12:31;;;;;;;6.47;5.80;;;18.20;99.90;;;;;;4997932;28;20210;-94
2022/08/10 10:15:23;;;;;;;6.93;5.90;;;18.20;99.90;;;;;;5000342;28;20218;-94
2022/08/10 10:18:18;;;;;;;7.03;5.17;;;18.10;99.90;;;;;;4998811;28;20218;-94
2022/08/10 10:21:02;;;;;;;7.83;5.97;;;18.10;99.90;;;;;;4997863;28;20313;-94
2022/08/10 10:23:50;;;;;;;6.83;5.23;;;18.00;99.90;;;;;;5014203;28;20549;-94
2022/08/10 10:26:51;;;;;;;6.57;5.50;;;18.00;99.90;;;;;;5017594;28;20229;-93
2022/08/10 10:29:37;;;;;;;6.00;5.40;;;18.00;99.90;;;;;;5018567;28;20238;-93
2022/08/10 10:32:37;;;;;;;7.00;6.30;;;18.00;99.90;;;;;;5017331;28;20236;-93
2022/08/10 10:35:20;;;;;;;6.37;5.80;;;18.00;99.90;;;;;;5018399;28;20225;-94
2022/08/10 10:37:54;;;;;;;9.60;6.20;;;18.00;99.90;;;;;;5018705;28;20236;-94
2022/08/10 10:40:44;;;;;;;11.40;5.83;;;18.00;99.90;;;;;;5021571;28;20213;-95
2022/08/10 10:43:40;;;;;;;7.47;5.27;;;18.00;99.90;;;;;;5019687;28;20298;-94
2022/08/10 10:46:27;;;;;;;6.07;5.07;;;18.00;99.90;;;;;;5019250;28;20210;-94
2022/08/10 10:49:22;;;;;;;6.53;5.27;;;18.00;99.90;;;;;;5019290;28;20244;-94
2022/08/10 10:52:01;;;;;;;5.80;5.30;;;18.00;99.90;;;;;;5019355;28;20217;-94
2022/08/10 10:54:42;;;;;;;5.77;4.70;;;18.00;99.90;;;;;;5020287;28;20201;-93
2022/08/10 10:57:30;;;;;;;5.60;4.47;;;18.00;99.90;;;;;;5017612;28;20229;-94
2022/08/10 11:00:23;;;;;;;5.80;4.80;;;18.10;99.90;;;;;;5017399;28;20238;-95
2022/08/10 11:03:13;;;;;;;6.73;4.70;;;18.10;99.90;;;;;;5015750;28;20225;-94
2022/08/10 11:05:51;;;;;;;4.77;4.30;;;18.20;99.90;;;;;;5017941;28;20233;-93
2022/08/10 11:08:25;;;;;;;5.03;4.33;;;18.20;99.90;;;;;;5017970;28;20237;-94
2022/08/10 11:11:02;;;;;;;6.37;4.43;;;18.10;99.90;;;;;;5017493;28;20213;-94
2022/08/10 11:13:45;;;;;;;6.00;3.97;;;18.20;99.90;;;;;;5019817;28;20240;-96
2022/08/10 11:16:37;;;;;;;5.53;4.30;;;18.10;99.90;;;;;;5017614;28;20210;-94
2022/08/10 11:19:16;;;;;;;5.33;4.17;;;18.20;99.90;;;;;;5017901;28;20219;-94
2022/08/10 11:21:59;;;;;;;6.37;4.30;;;18.10;99.90;;;;;;5015833;28;20209;-94
2022/08/10 11:24:39;;;;;;;8.00;4.13;;;17.90;99.90;;;;;;5000005;28;20237;-94
2022/08/10 11:27:30;;;;;;;6.87;3.53;;;17.80;99.90;;;;;;5001614;28;20241;-93
2022/08/10 11:30:09;;;;;;;6.07;4.17;;;17.80;99.90;;;;;;5000229;28;20210;-94
2022/08/10 11:32:56;;;;;;;7.30;4.03;;;17.70;99.90;;;;;;5000288;28;20663;-94
2022/08/10 11:35:37;;;;;;;5.23;3.50;;;17.70;99.90;;;;;;5001252;28;20245;-94
2022/08/10 11:38:15;;;;;;;5.10;4.10;;;17.60;99.90;;;;;;5000775;28;20210;-94
2022/08/10 11:41:14;;;;;;;6.47;4.47;;;17.50;99.90;;;;;;5000994;28;20215;-94
2022/08/10 11:44:12;;;;;;;5.83;3.87;;;17.40;99.90;;;;;;5002740;28;20302;-93
2022/08/10 11:46:55;;;;;;;9.60;4.50;;;17.40;99.90;;;;;;5004956;28;20237;-94
2022/08/10 11:49:33;;;;;;;5.50;4.13;;;17.40;99.90;;;;;;5009752;28;20298;-94
2022/08/10 11:52:15;;;;;;;7.53;4.60;;;17.40;99.90;;;;;;5140501;23;20236;-94
2022/08/10 11:54:52;;;;;;;8.33;4.30;;;17.30;99.90;;;;;;5039393;28;20225;-94
2022/08/10 11:57:30;;;;;;;5.37;4.00;;;17.30;99.90;;;;;;5039583;28;20189;-94
2022/08/10 12:00:21;;;;;;;6.47;4.23;;;17.20;99.90;;;;;;5030739;28;20228;-96
2022/08/10 12:02:59;;;;;;;5.20;4.30;;;17.20;99.90;;;;;;5019710;28;20217;-94
2022/08/10 12:05:33;;;;;;;5.67;4.33;;;17.10;99.90;;;;;;5021022;28;20227;-93
2022/08/10 12:08:27;;;;;;;7.37;4.40;;;17.10;99.90;;;;;;5020755;28;20226;-93
2022/08/10 12:11:23;;;;;;;5.07;4.53;;;17.10;99.90;;;;;;5020611;28;20205;-94
2022/08/10 12:14:01;;;;;;;7.13;5.13;;;17.00;99.90;;;;;;5024709;28;20209;-94
2022/08/10 12:16:56;;;;;;;6.40;4.97;;;17.00;99.90;;;;;;5038575;28;20197;-94
2022/08/10 12:19:38;;;;;;;7.30;4.67;;;17.00;99.90;;;;;;5038676;28;20277;-94
2022/08/10 12:22:37;;;;;;;9.33;4.87;;;17.00;99.90;;;;;;5038109;28;20204;-94
2022/08/10 12:25:15;;;;;;;5.97;4.60;;;17.10;99.90;;;;;;5038680;28;20220;-94
2022/08/10 12:28:14;;;;;;;6.23;4.77;;;17.20;99.90;;;;;;5038657;28;20236;-95
2022/08/10 12:30:53;;;;;;;5.70;4.80;;;17.10;99.90;;;;;;5037811;28;20220;-94
2022/08/10 12:33:28;;;;;;;9.10;5.00;;;17.20;99.90;;;;;;5038924;28;20197;-95
2022/08/10 12:36:10;;;;;;;7.57;4.80;;;17.20;99.90;;;;;;5037205;28;20253;-94
2022/08/10 12:38:58;;;;;;;8.17;5.13;;;17.10;99.90;;;;;;5032156;28;20213;-94
2022/08/10 12:41:34;;;;;;;12.13;5.50;;;17.00;99.90;;;;;;5020897;28;20228;-94
2022/08/10 12:44:20;;;;;;;7.33;4.80;;;16.90;99.90;;;;;;5019911;28;20223;-94
2022/08/10 12:46:58;;;;;;;8.00;5.50;;;16.90;99.90;;;;;;5019160;28;20236;-95
2022/08/10 12:49:45;;;;;;;6.13;5.43;;;16.90;99.90;;;;;;5018887;28;20253;-94
2022/08/10 12:52:45;;;;;;;8.80;5.90;;;16.80;99.90;;;;;;5018515;28;20252;-94
2022/08/10 12:55:19;;;;;;;9.07;5.70;;;16.80;99.90;;;;;;5019009;28;20201;-94
2022/08/10 12:57:56;;;;;;;11.00;6.20;;;16.70;99.90;;;;;;5018704;28;20212;-95
2022/08/10 13:00:34;;;;;;;8.83;6.03;;;16.60;99.90;;;;;;5018253;28;20237;-95
2022/08/10 13:03:30;;;;;;;7.50;6.27;;;16.50;99.90;;;;;;4999127;28;20245;-94
2022/08/10 13:06:22;;;;;;;8.47;6.37;;;16.40;99.90;;;;;;4998424;28;20582;-96
2022/08/10 13:09:09;;;;;;;8.87;6.70;;;16.30;99.90;;;;;;4998310;28;20261;-95
2022/08/10 13:11:44;;;;;;;9.93;6.67;;;16.40;99.90;;;;;;4997807;28;20210;-95
2022/08/10 13:14:39;;;;;;;7.13;5.90;;;16.40;99.90;;;;;;4998488;28;20549;-95
2022/08/10 13:17:12;;;;;;;7.53;5.57;;;16.50;99.90;;;;;;4998898;28;20265;-95
2022/08/10 13:19:52;;;;;;;9.03;5.23;;;16.50;99.90;;;;;;4998525;28;20284;-95
2022/08/10 13:22:31;;;;;;;9.90;6.30;;;16.50;99.90;;;;;;5001709;28;20213;-95
2022/08/10 13:25:07;;;;;;;11.23;6.13;;;16.40;99.90;;;;;;4998604;28;20336;-96
2022/08/10 13:27:40;;;;;;;7.57;5.53;;;16.40;99.90;;;;;;4999326;28;20576;-95
2022/08/10 13:30:32;;;;;;;9.83;5.87;;;16.40;99.90;;;;;;4999809;28;20264;-95
2022/08/10 13:33:10;;;;;;;10.67;6.37;;;16.40;99.90;;;;;;5001097;28;20732;-95
2022/08/10 13:35:45;;;;;;;11.27;5.80;;;16.30;99.90;;;;;;5000861;28;20210;-95
2022/08/10 13:38:26;;;;;;;9.27;5.60;;;16.40;99.90;;;;;;4998306;28;20217;-94
2022/08/10 13:41:02;;;;;;;11.23;5.67;;;16.30;99.90;;;;;;4999462;28;20214;-95
2022/08/10 13:43:35;;;;;;;8.00;4.97;;;16.30;99.90;;;;;;4997412;28;20260;-95
2022/08/10 13:46:15;;;;;;;7.70;4.63;;;16.40;99.90;;;;;;4997482;28;20210;-96
2022/08/10 13:48:54;;;;;;;7.53;4.33;;;16.50;99.90;;;;;;4999926;28;20257;-96
2022/08/10 13:51:30;;;;;;;6.27;4.33;;;16.40;99.90;;;;;;4996988;28;20281;-96
2022/08/10 13:54:23;;;;;;;10.87;5.10;;;16.30;99.90;;;;;;5020847;28;20244;-94
2022/08/10 17:22:36;;;;;;;4.70;3.57;;;18.10;99.90;;;;;;4974172;27;4274615;-95
2022/08/10 17:25:12;;;;;;;5.17;3.20;;;18.70;99.90;;;;;;5118483;28;20234;-96
2022/08/10 17:27:45;;;;;;;7.17;4.03;;;18.50;99.90;;;;;;5118546;28;20696;-94
2022/08/10 17:30:46;;;;;;;5.53;3.93;;;18.40;99.90;;;;;;5117456;28;20321;-95
2022/08/10 17:33:31;;;;;;;5.80;3.90;;;18.60;99.90;;;;;;5119248;28;20271;-94
2022/08/10 17:36:04;;;;;;;8.30;4.20;;;18.90;99.90;;;;;;5115455;28;20231;-95